createdAt,value
2018-12-24T00:00:33.471Z,18.8
2018-12-24T00:01:23.262Z,18.8
2018-12-24T00:02:13.332Z,18.9
2018-12-24T00:03:04.033Z,18.9
2018-12-24T00:03:53.753Z,18.9
2018-12-24T00:04:42.651Z,19
2018-12-24T00:05:34.355Z,19
2018-12-24T00:06:22.795Z,18.9
2018-12-24T00:07:13.417Z,19
2018-12-24T00:08:04.325Z,18.9
2018-12-24T00:08:53.593Z,18.9
2018-12-24T00:09:44.393Z,18.9
2018-12-24T00:10:34.533Z,18.9
2018-12-24T00:11:24.248Z,18.8
2018-12-24T00:12:16.894Z,18.8
2018-12-24T00:13:53.578Z,18.6
2018-12-24T00:14:44.179Z,18.6
2018-12-24T00:32:49.574Z,18.4
2018-12-24T00:33:38.504Z,18.4
2018-12-24T00:34:28.311Z,18.5
2018-12-24T00:35:18.651Z,18.4
2018-12-24T00:36:09.533Z,18.5
2018-12-24T00:36:59.033Z,18.6
2018-12-24T00:37:49.698Z,18.6
2018-12-24T00:40:19.766Z,18.8
2018-12-24T00:41:59.643Z,18.6
2018-12-24T00:42:49.990Z,18.6
2018-12-24T00:43:39.740Z,18.4
2018-12-24T00:44:29.808Z,18.4
2018-12-24T00:45:19.434Z,18.3
2018-12-24T00:46:10.200Z,18.2
2018-12-24T00:46:59.436Z,18.2
2018-12-24T00:47:50.603Z,18.1
2018-12-24T00:48:40.434Z,18.1
2018-12-24T00:49:29.711Z,18.1
2018-12-24T00:50:20.533Z,18.1
2018-12-24T00:51:09.757Z,18.1
2018-12-24T00:51:58.670Z,18.1
2018-12-24T00:52:51.055Z,18.2
2018-12-24T00:53:40.430Z,18.2
2018-12-24T00:54:30.777Z,18.3
2018-12-24T00:55:18.763Z,18.3
2018-12-24T00:56:10.350Z,18.3
2018-12-24T00:57:00.695Z,18.3
2018-12-24T00:57:51.330Z,18.4
2018-12-24T00:58:40.505Z,18.4
2018-12-24T00:59:30.572Z,18.5
2018-12-24T01:00:21.280Z,18.6
2018-12-24T01:01:11.548Z,18.6
2018-12-24T01:06:11.929Z,18.8
2018-12-24T01:07:01.057Z,18.8
2018-12-24T01:07:51.187Z,18.8
2018-12-24T01:08:41.530Z,18.8
2018-12-24T01:09:31.397Z,18.9
2018-12-24T01:10:22.006Z,18.8
2018-12-24T01:12:03.071Z,18.6
2018-12-24T01:12:51.184Z,18.6
2018-12-24T01:13:40.717Z,18.6
2018-12-24T01:14:31.559Z,18.5
2018-12-24T01:15:22.259Z,18.4
2018-12-24T01:16:11.994Z,18.5
2018-12-24T01:17:02.122Z,18.5
2018-12-24T01:17:51.865Z,18.4
2018-12-24T01:18:41.634Z,18.4
2018-12-24T01:19:31.751Z,18.4
2018-12-24T01:20:22.323Z,18.3
2018-12-24T01:21:11.686Z,18.3
2018-12-24T01:22:02.452Z,18.3
2018-12-24T01:22:51.641Z,18.2
2018-12-24T01:23:41.632Z,18.1
2018-12-24T01:24:31.786Z,18.1
2018-12-24T01:25:22.148Z,18.1
2018-12-24T01:26:12.451Z,18.1
2018-12-24T01:27:01.958Z,18.1
2018-12-24T01:27:52.688Z,18.1
2018-12-24T01:28:42.084Z,18.1
2018-12-24T01:29:31.902Z,18.2
2018-12-24T01:30:23.269Z,18.2
2018-12-24T01:31:13.277Z,18.3
2018-12-24T01:32:02.545Z,18.3
2018-12-24T01:32:52.802Z,18.4
2018-12-24T01:33:42.403Z,18.4
2018-12-24T01:34:33.317Z,18.4
2018-12-24T01:35:23.282Z,18.4
2018-12-24T01:36:13.579Z,18.4
2018-12-24T01:37:05.234Z,18.5
2018-12-24T01:37:53.426Z,18.6
2018-12-24T01:38:43.672Z,18.6
2018-12-24T01:39:33.574Z,18.6
2018-12-24T01:41:13.158Z,18.8
2018-12-24T01:42:02.959Z,18.8
2018-12-24T01:42:53.799Z,18.9
2018-12-24T01:43:42.881Z,18.9
2018-12-24T01:44:33.732Z,18.9
2018-12-24T01:45:23.482Z,18.9
2018-12-24T01:46:13.757Z,18.9
2018-12-24T01:47:03.546Z,18.9
2018-12-24T01:47:54.101Z,18.9
2018-12-24T01:48:44.225Z,18.9
2018-12-24T01:49:33.713Z,18.9
2018-12-24T01:50:23.486Z,18.8
2018-12-24T01:51:13.253Z,18.8
2018-12-24T01:52:54.751Z,18.6
2018-12-24T01:53:44.408Z,18.6
2018-12-24T01:54:33.508Z,18.5
2018-12-24T01:55:24.415Z,18.4
2018-12-24T01:56:13.940Z,18.4
2018-12-24T01:57:04.256Z,18.3
2018-12-24T01:57:54.253Z,18.3
2018-12-24T01:58:44.096Z,18.3
2018-12-24T01:59:34.858Z,18.2
2018-12-24T02:00:25.095Z,18.1
2018-12-24T02:01:15.038Z,18.1
2018-12-24T02:02:05.191Z,18.1
2018-12-24T02:02:55.168Z,18.1
2018-12-24T02:03:46.273Z,18.1
2018-12-24T02:04:35.001Z,18
2018-12-24T02:05:24.520Z,18.1
2018-12-24T02:06:14.548Z,18.1
2018-12-24T02:07:05.455Z,18.1
2018-12-24T02:07:56.179Z,18.1
2018-12-24T02:08:45.902Z,18.1
2018-12-24T02:09:35.590Z,18.2
2018-12-24T02:10:25.397Z,18.2
2018-12-24T02:11:14.864Z,18.2
2018-12-24T02:12:06.202Z,18.2
2018-12-24T02:12:55.574Z,18.2
2018-12-24T02:13:45.625Z,18.2
2018-12-24T02:14:36.110Z,18.2
2018-12-24T02:15:25.212Z,18.2
2018-12-24T02:16:16.684Z,18.3
2018-12-24T02:17:06.212Z,18.4
2018-12-24T02:17:55.186Z,18.4
2018-12-24T02:18:45.904Z,18.4
2018-12-24T02:19:36.999Z,18.4
2018-12-24T02:20:25.343Z,18.4
2018-12-24T02:21:15.638Z,18.4
2018-12-24T02:22:16.051Z,18.4
2018-12-24T02:22:56.367Z,18.4
2018-12-24T02:23:46.601Z,18.4
2018-12-24T02:24:36.995Z,18.3
2018-12-24T02:25:26.162Z,18.2
2018-12-24T02:26:17.342Z,18.1
2018-12-24T02:27:05.974Z,18.1
2018-12-24T02:27:56.549Z,18
2018-12-24T02:28:46.926Z,17.9
2018-12-24T02:29:37.251Z,17.9
2018-12-24T02:30:27.851Z,17.9
2018-12-24T02:31:16.823Z,17.9
2018-12-24T02:32:07.367Z,17.9
2018-12-24T02:32:57.046Z,17.9
2018-12-24T02:33:47.626Z,18
2018-12-24T02:34:36.559Z,18
2018-12-24T02:35:27.608Z,18.1
2018-12-24T02:36:18.061Z,18.1
2018-12-24T02:37:07.316Z,18.2
2018-12-24T02:37:57.709Z,18.2
2018-12-24T02:38:47.204Z,18.3
2018-12-24T02:39:38.159Z,18.3
2018-12-24T02:40:28.096Z,18.3
2018-12-24T02:41:18.622Z,18.4
2018-12-24T02:42:07.781Z,18.6
2018-12-24T02:43:01.568Z,18.6
2018-12-24T02:43:47.470Z,18.6
2018-12-24T02:46:17.712Z,18.9
2018-12-24T02:47:08.550Z,18.8
2018-12-24T02:47:58.425Z,18.8
2018-12-24T02:48:47.530Z,18.9
2018-12-24T02:49:38.260Z,18.9
2018-12-24T02:50:29.067Z,18.9
2018-12-24T02:51:18.533Z,18.8
2018-12-24T02:52:08.502Z,18.8
2018-12-24T02:53:49.105Z,18.6
2018-12-24T02:54:39.495Z,18.6
2018-12-24T02:55:28.540Z,18.5
2018-12-24T02:56:18.622Z,18.4
2018-12-24T02:57:08.544Z,18.3
2018-12-24T02:57:59.099Z,18.3
2018-12-24T02:58:49.065Z,18.3
2018-12-24T02:59:38.049Z,18.2
2018-12-24T03:00:29.317Z,18.1
2018-12-24T03:01:19.700Z,18.1
2018-12-24T03:02:09.339Z,18
2018-12-24T03:02:59.351Z,17.9
2018-12-24T03:03:48.652Z,17.9
2018-12-24T03:04:38.730Z,17.9
2018-12-24T03:05:28.707Z,17.9
2018-12-24T03:06:18.681Z,17.9
2018-12-24T03:07:08.652Z,18.1
2018-12-24T03:07:59.720Z,18.1
2018-12-24T03:08:50.139Z,18.1
2018-12-24T03:09:40.022Z,18.2
2018-12-24T03:10:29.191Z,18.2
2018-12-24T03:11:19.351Z,18.2
2018-12-24T03:12:09.778Z,18.2
2018-12-24T03:13:11.276Z,18.2
2018-12-24T03:13:49.054Z,18.3
2018-12-24T03:14:40.796Z,18.3
2018-12-24T03:15:30.751Z,18.3
2018-12-24T03:16:20.338Z,18.4
2018-12-24T03:17:09.866Z,18.3
2018-12-24T03:17:59.738Z,18.4
2018-12-24T03:18:50.401Z,18.5
2018-12-24T03:19:40.424Z,18.5
2018-12-24T03:20:30.349Z,18.5
2018-12-24T03:21:19.940Z,18.6
2018-12-24T03:22:09.722Z,18.6
2018-12-24T03:22:59.209Z,18.6
2018-12-24T03:24:40.873Z,18.8
2018-12-24T03:25:30.401Z,18.8
2018-12-24T03:26:20.508Z,18.8
2018-12-24T03:27:09.779Z,18.8
2018-12-24T03:28:00.991Z,18.8
2018-12-24T03:28:51.941Z,18.8
2018-12-24T03:29:41.167Z,18.8
2018-12-24T03:30:32.436Z,18.8
2018-12-24T03:32:10.972Z,18.6
2018-12-24T03:33:01.680Z,18.6
2018-12-24T03:33:51.465Z,18.6
2018-12-24T03:34:41.588Z,18.5
2018-12-24T03:35:31.628Z,18.4
2018-12-24T03:36:21.642Z,18.4
2018-12-24T03:37:11.764Z,18.3
2018-12-24T03:38:02.208Z,18.3
2018-12-24T03:38:52.678Z,18.2
2018-12-24T03:39:41.644Z,18.1
2018-12-24T03:40:32.256Z,18.1
2018-12-24T03:41:21.628Z,18
2018-12-24T03:42:10.912Z,17.9
2018-12-24T03:43:01.791Z,18
2018-12-24T03:43:51.685Z,18
2018-12-24T03:44:41.852Z,18
2018-12-24T03:45:32.523Z,18
2018-12-24T03:46:22.542Z,18.1
2018-12-24T03:47:12.398Z,18.1
2018-12-24T03:48:02.439Z,18.1
2018-12-24T03:48:51.287Z,18.1
2018-12-24T03:49:42.347Z,18.1
2018-12-24T03:50:31.654Z,18.1
2018-12-24T03:51:22.670Z,18.1
2018-12-24T03:52:13.392Z,18.3
2018-12-24T03:53:02.542Z,18.3
2018-12-24T03:53:52.546Z,18.3
2018-12-24T03:54:42.831Z,18.3
2018-12-24T03:55:32.917Z,18.4
2018-12-24T03:56:22.397Z,18.4
2018-12-24T03:57:13.002Z,18.4
2018-12-24T03:58:03.096Z,18.5
2018-12-24T03:58:53.132Z,18.6
2018-12-24T03:59:43.148Z,18.6
2018-12-24T04:00:34.060Z,18.6
2018-12-24T04:01:23.353Z,18.6
2018-12-24T04:02:12.563Z,18.6
2018-12-24T04:03:02.827Z,18.6
2018-12-24T04:03:53.612Z,18.5
2018-12-24T04:04:43.071Z,18.4
2018-12-24T04:05:33.006Z,18.3
2018-12-24T04:06:23.669Z,18.3
2018-12-24T04:07:13.671Z,18.2
2018-12-24T04:08:03.038Z,18.1
2018-12-24T04:08:53.785Z,18
2018-12-24T04:09:44.108Z,18
2018-12-24T04:10:33.902Z,17.9
2018-12-24T04:11:26.691Z,17.9
2018-12-24T04:12:14.138Z,17.9
2018-12-24T04:13:04.733Z,18
2018-12-24T04:13:54.105Z,18
2018-12-24T04:14:43.810Z,18
2018-12-24T04:15:34.314Z,18.1
2018-12-24T04:16:24.184Z,18.1
2018-12-24T04:17:13.377Z,18.1
2018-12-24T04:18:04.497Z,18.1
2018-12-24T04:18:53.734Z,18.1
2018-12-24T04:19:42.981Z,18.2
2018-12-24T04:20:33.555Z,18.2
2018-12-24T04:21:26.945Z,18.3
2018-12-24T04:22:14.499Z,18.4
2018-12-24T04:23:04.320Z,18.4
2018-12-24T04:23:54.252Z,18.5
2018-12-24T04:24:44.722Z,18.5
2018-12-24T04:25:35.396Z,18.6
2018-12-24T04:26:25.082Z,18.6
2018-12-24T04:27:13.995Z,18.6
2018-12-24T04:28:54.889Z,18.8
2018-12-24T04:29:45.210Z,18.8
2018-12-24T04:30:36.746Z,18.8
2018-12-24T04:31:25.184Z,18.8
2018-12-24T04:32:15.207Z,18.8
2018-12-24T04:33:04.928Z,18.8
2018-12-24T04:34:45.871Z,18.6
2018-12-24T04:35:36.240Z,18.6
2018-12-24T04:36:25.381Z,18.6
2018-12-24T04:37:14.822Z,18.5
2018-12-24T04:38:05.682Z,18.5
2018-12-24T04:38:56.197Z,18.5
2018-12-24T04:39:45.912Z,18.5
2018-12-24T04:40:36.006Z,18.4
2018-12-24T04:41:26.598Z,18.3
2018-12-24T04:42:15.231Z,18.3
2018-12-24T04:43:05.609Z,18.3
2018-12-24T04:43:55.961Z,18.2
2018-12-24T04:44:46.834Z,18.2
2018-12-24T05:02:06.058Z,18.6
2018-12-24T05:03:46.453Z,18.6
2018-12-24T05:04:35.023Z,18.6
2018-12-24T05:06:16.325Z,18.8
2018-12-24T05:07:06.842Z,18.8
2018-12-24T05:07:56.139Z,18.8
2018-12-24T05:08:46.377Z,18.8
2018-12-24T05:09:35.609Z,18.8
2018-12-24T05:10:26.327Z,18.9
2018-12-24T05:11:16.894Z,18.8
2018-12-24T05:12:07.534Z,18.8
2018-12-24T05:13:49.766Z,18.6
2018-12-24T05:14:37.711Z,18.6
2018-12-24T05:15:27.211Z,18.6
2018-12-24T05:16:16.686Z,18.5
2018-12-24T05:17:08.076Z,18.5
2018-12-24T05:17:56.732Z,18.4
2018-12-24T05:18:47.056Z,18.3
2018-12-24T05:19:37.383Z,18.3
2018-12-24T05:20:27.446Z,18.2
2018-12-24T05:21:17.881Z,18.1
2018-12-24T05:22:08.311Z,18.1
2018-12-24T05:22:57.873Z,18.1
2018-12-24T05:23:47.948Z,18.1
2018-12-24T05:24:38.256Z,18
2018-12-24T05:25:26.785Z,18
2018-12-24T05:26:18.401Z,18.1
2018-12-24T05:27:08.753Z,18.1
2018-12-24T05:27:57.688Z,18.1
2018-12-24T05:28:48.433Z,18.1
2018-12-24T05:29:38.345Z,18
2018-12-24T05:30:28.393Z,18.1
2018-12-24T05:31:18.503Z,18.1
2018-12-24T05:32:08.208Z,18.2
2018-12-24T05:32:58.328Z,18.2
2018-12-24T05:33:49.056Z,18.2
2018-12-24T05:34:38.172Z,18.3
2018-12-24T05:35:27.929Z,18.3
2018-12-24T05:36:17.540Z,18.3
2018-12-24T05:37:09.370Z,18.3
2018-12-24T05:37:58.882Z,18.4
2018-12-24T05:38:48.700Z,18.4
2018-12-24T05:39:38.188Z,18.4
2018-12-24T05:40:28.315Z,18.4
2018-12-24T05:41:18.567Z,18.4
2018-12-24T05:42:08.695Z,18.4
2018-12-24T05:42:58.740Z,18.4
2018-12-24T05:43:57.098Z,18.4
2018-12-24T05:44:38.964Z,18.4
2018-12-24T05:45:29.180Z,18.3
2018-12-24T05:46:18.672Z,18.3
2018-12-24T05:47:08.212Z,18.1
2018-12-24T05:47:59.882Z,18
2018-12-24T05:48:50.032Z,17.9
2018-12-24T05:49:39.537Z,17.9
2018-12-24T05:50:30.643Z,17.9
2018-12-24T05:51:18.982Z,17.9
2018-12-24T05:52:10.140Z,17.8
2018-12-24T05:53:00.060Z,17.9
2018-12-24T05:53:49.443Z,17.9
2018-12-24T05:54:39.235Z,17.9
2018-12-24T05:55:30.914Z,17.9
2018-12-24T05:56:20.429Z,17.9
2018-12-24T05:57:10.496Z,18
2018-12-24T05:58:00.310Z,18.1
2018-12-24T05:58:50.607Z,18.1
2018-12-24T05:59:39.824Z,18.1
2018-12-24T06:00:31.022Z,18.1
2018-12-24T06:01:20.215Z,18.1
2018-12-24T06:02:10.566Z,18.1
2018-12-24T06:03:01.014Z,18.2
2018-12-24T06:03:50.926Z,18.3
2018-12-24T06:04:40.827Z,18.3
2018-12-24T06:05:30.520Z,18.4
2018-12-24T06:06:20.551Z,18.4
2018-12-24T06:07:10.682Z,18.4
2018-12-24T06:08:00.926Z,18.5
2018-12-24T06:08:50.716Z,18.6
2018-12-24T06:09:39.926Z,18.6
2018-12-24T06:10:30.406Z,18.6
2018-12-24T06:11:20.594Z,18.6
2018-12-24T06:12:11.235Z,18.6
2018-12-24T06:13:01.514Z,18.6
2018-12-24T06:14:00.337Z,18.5
2018-12-24T06:14:41.656Z,18.5
2018-12-24T06:15:30.973Z,18.4
2018-12-24T06:16:20.588Z,18.4
2018-12-24T06:17:10.256Z,18.4
2018-12-24T06:18:04.026Z,18.3
2018-12-24T06:18:51.943Z,18.3
2018-12-24T06:19:41.813Z,18.2
2018-12-24T06:20:39.918Z,18.1
2018-12-24T06:21:21.006Z,18.1
2018-12-24T06:22:11.907Z,18.1
2018-12-24T06:23:02.875Z,18
2018-12-24T06:23:52.345Z,17.9
2018-12-24T06:24:41.238Z,17.9
2018-12-24T06:25:32.561Z,17.8
2018-12-24T06:26:22.005Z,17.8
2018-12-24T06:27:12.080Z,17.8
2018-12-24T06:28:01.595Z,17.8
2018-12-24T06:28:52.160Z,17.8
2018-12-24T06:29:42.673Z,17.8
2018-12-24T06:30:32.395Z,17.8
2018-12-24T06:31:21.796Z,17.8
2018-12-24T06:32:12.063Z,17.8
2018-12-24T06:33:02.917Z,17.9
2018-12-24T06:33:52.546Z,17.9
2018-12-24T06:34:41.435Z,18
2018-12-24T06:35:33.352Z,18
2018-12-24T06:36:22.397Z,18.1
2018-12-24T06:37:12.457Z,18.1
2018-12-24T06:38:03.780Z,18.2
2018-12-24T06:38:53.615Z,18.3
2018-12-24T06:39:42.797Z,18.3
2018-12-24T06:40:32.134Z,18.3
2018-12-24T06:41:22.907Z,18.3
2018-12-24T06:42:12.927Z,18.4
2018-12-24T06:43:02.862Z,18.5
2018-12-24T06:43:54.417Z,18.5
2018-12-24T06:44:42.968Z,18.6
2018-12-24T06:45:33.584Z,18.6
2018-12-24T06:46:22.402Z,18.6
2018-12-24T06:47:12.368Z,18.6
2018-12-24T06:48:52.998Z,18.6
2018-12-24T06:49:43.571Z,18.6
2018-12-24T06:50:33.817Z,18.6
2018-12-24T06:51:24.362Z,18.6
2018-12-24T06:52:13.626Z,18.6
2018-12-24T06:53:03.699Z,18.6
2018-12-24T06:53:53.231Z,18.5
2018-12-24T06:54:43.351Z,18.4
2018-12-24T06:55:33.969Z,18.4
2018-12-24T06:56:23.936Z,18.4
2018-12-24T06:57:13.433Z,18.3
2018-12-24T06:58:03.765Z,18.2
2018-12-24T06:58:54.275Z,18.1
2018-12-24T06:59:45.377Z,18.1
2018-12-24T07:00:34.530Z,18.1
2018-12-24T07:01:23.834Z,18
2018-12-24T07:02:14.612Z,18
2018-12-24T07:03:04.122Z,18
2018-12-24T07:03:54.697Z,17.9
2018-12-24T07:04:44.859Z,17.9
2018-12-24T07:05:35.440Z,17.8
2018-12-24T07:06:24.254Z,17.8
2018-12-24T07:07:14.772Z,17.8
2018-12-24T07:08:05.021Z,17.8
2018-12-24T07:08:55.590Z,17.8
2018-12-24T07:09:45.191Z,17.8
2018-12-24T07:10:35.516Z,17.9
2018-12-24T07:11:25.044Z,17.9
2018-12-24T07:12:14.723Z,17.9
2018-12-24T07:13:04.511Z,17.9
2018-12-24T07:13:54.604Z,18.1
2018-12-24T07:14:45.684Z,18.2
2018-12-24T07:15:35.496Z,18.1
2018-12-24T07:16:25.551Z,18.2
2018-12-24T07:17:15.879Z,18.2
2018-12-24T07:18:04.673Z,18.2
2018-12-24T07:18:55.914Z,18.2
2018-12-24T07:19:45.814Z,18.3
2018-12-24T07:20:34.479Z,18.3
2018-12-24T07:21:25.916Z,18.3
2018-12-24T07:22:15.131Z,18.3
2018-12-24T07:23:05.531Z,18.3
2018-12-24T07:23:56.042Z,18.3
2018-12-24T07:24:46.199Z,18.3
2018-12-24T07:25:35.341Z,18.2
2018-12-24T07:26:26.146Z,18.2
2018-12-24T07:27:16.568Z,18.1
2018-12-24T07:28:07.135Z,18
2018-12-24T07:29:03.919Z,17.9
2018-12-24T07:29:45.331Z,17.8
2018-12-24T07:30:36.245Z,17.8
2018-12-24T07:31:27.359Z,17.8
2018-12-24T07:32:16.678Z,17.8
2018-12-24T07:33:07.163Z,17.7
2018-12-24T07:33:56.273Z,17.8
2018-12-24T07:34:46.458Z,17.8
2018-12-24T07:35:37.263Z,17.9
2018-12-24T07:36:27.027Z,17.9
2018-12-24T07:37:17.245Z,17.9
2018-12-24T07:38:08.810Z,17.9
2018-12-24T07:38:56.572Z,17.9
2018-12-24T07:39:47.393Z,18
2018-12-24T07:40:37.290Z,18.1
2018-12-24T07:41:26.960Z,18.1
2018-12-24T07:42:17.576Z,18.1
2018-12-24T07:43:07.216Z,18.1
2018-12-24T07:43:57.715Z,18.2
2018-12-24T07:44:47.734Z,18.2
2018-12-24T07:45:37.839Z,18.1
2018-12-24T07:46:26.814Z,18.2
2018-12-24T07:47:17.380Z,18.2
2018-12-24T07:48:07.022Z,18.2
2018-12-24T07:48:58.042Z,18.3
2018-12-24T07:49:47.324Z,18.3
2018-12-24T07:50:38.464Z,18.3
2018-12-24T07:51:27.007Z,18.2
2018-12-24T07:52:16.701Z,18.1
2018-12-24T07:53:07.689Z,18.1
2018-12-24T07:53:57.826Z,18.1
2018-12-24T07:54:48.401Z,18.1
2018-12-24T07:55:38.286Z,18
2018-12-24T07:56:27.726Z,17.9
2018-12-24T07:57:18.606Z,17.9
2018-12-24T07:58:08.105Z,17.8
2018-12-24T07:58:59.081Z,17.8
2018-12-24T07:59:48.491Z,17.7
2018-12-24T08:00:38.313Z,17.6
2018-12-24T08:01:28.438Z,17.6
2018-12-24T08:02:18.665Z,17.6
2018-12-24T08:03:08.468Z,17.6
2018-12-24T08:03:58.334Z,17.6
2018-12-24T08:04:48.091Z,17.6
2018-12-24T08:05:38.900Z,17.6
2018-12-24T08:06:29.020Z,17.6
2018-12-24T08:07:19.028Z,17.7
2018-12-24T08:08:07.755Z,17.8
2018-12-24T08:08:58.835Z,17.8
2018-12-24T08:09:47.935Z,17.8
2018-12-24T08:10:39.235Z,17.8
2018-12-24T08:11:28.750Z,17.8
2018-12-24T08:12:21.205Z,17.9
2018-12-24T08:13:09.715Z,17.9
2018-12-24T08:13:59.755Z,17.9
2018-12-24T08:14:49.843Z,18.1
2018-12-24T08:15:39.017Z,18.1
2018-12-24T08:16:29.947Z,18.1
2018-12-24T08:17:18.297Z,18.3
2018-12-24T08:18:10.122Z,18.3
2018-12-24T08:18:59.573Z,18.3
2018-12-24T08:19:48.455Z,18.4
2018-12-24T08:20:39.953Z,18.4
2018-12-24T08:21:29.132Z,18.4
2018-12-24T08:22:19.812Z,18.4
2018-12-24T08:23:08.980Z,18.3
2018-12-24T08:23:59.564Z,18.3
2018-12-24T08:24:49.734Z,18.3
2018-12-24T08:25:40.056Z,18.1
2018-12-24T08:26:30.338Z,18.1
2018-12-24T08:27:20.122Z,18.1
2018-12-24T08:28:10.421Z,18.1
2018-12-24T08:29:00.754Z,18
2018-12-24T08:29:50.284Z,17.9
2018-12-24T08:30:39.801Z,17.9
2018-12-24T08:31:30.121Z,17.9
2018-12-24T08:32:20.406Z,17.8
2018-12-24T08:33:10.214Z,17.8
2018-12-24T08:34:00.163Z,17.7
2018-12-24T08:34:50.641Z,17.6
2018-12-24T08:35:41.606Z,17.6
2018-12-24T08:36:29.968Z,17.6
2018-12-24T08:37:20.646Z,17.6
2018-12-24T08:38:10.188Z,17.6
2018-12-24T08:39:01.134Z,17.6
2018-12-24T08:39:50.946Z,17.6
2018-12-24T08:40:41.523Z,17.6
2018-12-24T08:41:30.865Z,17.6
2018-12-24T08:42:20.936Z,17.6
2018-12-24T08:43:10.615Z,17.6
2018-12-24T08:44:00.473Z,17.7
2018-12-24T08:44:51.498Z,17.8
2018-12-24T08:45:41.076Z,17.8
2018-12-24T08:46:31.461Z,17.9
2018-12-24T08:47:21.840Z,17.9
2018-12-24T08:48:11.442Z,17.9
2018-12-24T08:49:01.548Z,18
2018-12-24T08:49:51.061Z,18.1
2018-12-24T08:50:41.111Z,18.1
2018-12-24T08:51:32.379Z,18.1
2018-12-24T08:52:22.354Z,18.2
2018-12-24T08:53:11.882Z,18.1
2018-12-24T08:54:01.627Z,18.3
2018-12-24T08:54:52.068Z,18.2
2018-12-24T08:55:42.332Z,18.2
2018-12-24T08:56:34.724Z,18.1
2018-12-24T08:57:23.522Z,18.1
2018-12-24T08:58:12.723Z,18.1
2018-12-24T08:59:02.530Z,18.1
2018-12-24T08:59:52.310Z,18
2018-12-24T09:00:42.656Z,18
2018-12-24T09:16:34.364Z,17.8
2018-12-24T09:17:24.490Z,17.9
2018-12-24T09:18:15.088Z,17.9
2018-12-24T09:19:04.390Z,17.9
2018-12-24T09:19:53.807Z,18
2018-12-24T09:20:52.435Z,18
2018-12-24T09:21:35.078Z,18.1
2018-12-24T09:22:24.542Z,18.1
2018-12-24T09:23:14.847Z,18.2
2018-12-24T09:24:05.413Z,18.3
2018-12-24T09:24:54.403Z,18.3
2018-12-24T09:25:44.735Z,18.3
2018-12-24T09:26:35.207Z,18.3
2018-12-24T09:27:25.115Z,18.3
2018-12-24T09:28:14.637Z,18.3
2018-12-24T09:29:05.709Z,18.3
2018-12-24T09:29:55.122Z,18.2
2018-12-24T09:30:46.017Z,18.1
2018-12-24T09:31:35.337Z,18.1
2018-12-24T09:32:24.677Z,18.1
2018-12-24T09:33:15.320Z,18.1
2018-12-24T09:34:04.752Z,18
2018-12-24T09:34:54.257Z,18
2018-12-24T09:35:45.544Z,17.9
2018-12-24T09:36:35.657Z,17.9
2018-12-24T09:37:25.824Z,17.9
2018-12-24T09:38:16.072Z,17.9
2018-12-24T09:39:05.647Z,17.9
2018-12-24T09:39:55.146Z,17.9
2018-12-24T09:40:45.475Z,17.9
2018-12-24T09:41:36.493Z,17.9
2018-12-24T09:42:27.026Z,17.9
2018-12-24T09:43:16.213Z,17.9
2018-12-24T09:44:06.308Z,17.9
2018-12-24T09:45:05.136Z,17.9
2018-12-24T09:45:45.636Z,17.9
2018-12-24T09:46:36.578Z,17.9
2018-12-24T09:47:26.325Z,18
2018-12-24T09:48:16.640Z,18
2018-12-24T09:49:05.327Z,18.1
2018-12-24T09:49:55.870Z,18.1
2018-12-24T09:50:46.723Z,18.2
2018-12-24T09:51:37.367Z,18.3
2018-12-24T09:52:26.476Z,18.3
2018-12-24T09:53:17.587Z,18.3
2018-12-24T09:54:06.957Z,18.4
2018-12-24T09:54:55.727Z,18.3
2018-12-24T09:55:47.122Z,18.3
2018-12-24T09:56:36.647Z,18.3
2018-12-24T09:57:27.722Z,18.2
2018-12-24T09:58:17.343Z,18.1
2018-12-24T09:59:07.587Z,18.1
2018-12-24T09:59:57.455Z,18
2018-12-24T10:00:47.194Z,18
2018-12-24T10:01:37.087Z,17.9
2018-12-24T10:02:27.111Z,17.9
2018-12-24T10:03:17.970Z,17.8
2018-12-24T10:04:12.451Z,17.8
2018-12-24T10:04:57.229Z,17.7
2018-12-24T10:05:48.061Z,17.7
2018-12-24T10:06:37.877Z,17.6
2018-12-24T10:07:26.764Z,17.6
2018-12-24T10:08:16.447Z,17.5
2018-12-24T10:09:07.977Z,17.4
2018-12-24T10:09:57.484Z,17.4
2018-12-24T10:10:48.451Z,17.4
2018-12-24T10:11:36.921Z,17.4
2018-12-24T10:12:28.458Z,17.3
2018-12-24T10:13:18.251Z,17.3
2018-12-24T10:14:08.671Z,17.3
2018-12-24T10:14:58.736Z,17.4
2018-12-24T10:15:50.666Z,17.4
2018-12-24T10:16:38.225Z,17.4
2018-12-24T10:17:27.789Z,17.4
2018-12-24T10:18:18.356Z,17.6
2018-12-24T10:19:08.401Z,17.6
2018-12-24T10:19:59.074Z,17.6
2018-12-24T10:20:48.528Z,17.7
2018-12-24T10:21:39.208Z,17.7
2018-12-24T10:22:28.842Z,17.8
2018-12-24T10:23:19.335Z,17.9
2018-12-24T10:24:09.060Z,18
2018-12-24T10:24:57.948Z,18
2018-12-24T10:25:49.653Z,18
2018-12-24T10:26:39.218Z,18.1
2018-12-24T10:27:29.550Z,18.1
2018-12-24T10:28:18.445Z,18.1
2018-12-24T10:29:08.610Z,18.1
2018-12-24T10:29:59.135Z,17.9
2018-12-24T10:30:48.854Z,17.9
2018-12-24T10:31:39.521Z,17.8
2018-12-24T10:32:28.545Z,17.8
2018-12-24T10:33:20.384Z,17.7
2018-12-24T10:34:09.673Z,17.7
2018-12-24T10:34:59.035Z,17.6
2018-12-24T10:35:49.894Z,17.6
2018-12-24T10:36:39.144Z,17.6
2018-12-24T10:37:29.790Z,17.5
2018-12-24T10:38:20.673Z,17.4
2018-12-24T10:39:10.102Z,17.4
2018-12-24T10:39:59.589Z,17.3
2018-12-24T10:40:49.828Z,17.2
2018-12-24T10:41:39.229Z,17.1
2018-12-24T10:42:30.536Z,17.1
2018-12-24T10:43:20.395Z,17.1
2018-12-24T10:45:50.197Z,17.1
2018-12-24T10:46:39.518Z,17.1
2018-12-24T10:47:29.736Z,17.1
2018-12-24T10:48:21.038Z,17.1
2018-12-24T10:49:10.736Z,17.3
2018-12-24T10:50:00.245Z,17.3
2018-12-24T10:50:51.026Z,17.4
2018-12-24T10:51:40.297Z,17.4
2018-12-24T10:52:30.918Z,17.5
2018-12-24T10:53:18.748Z,17.6
2018-12-24T10:54:09.983Z,17.6
2018-12-24T10:55:00.023Z,17.8
2018-12-24T10:55:50.633Z,17.8
2018-12-24T10:56:42.878Z,17.9
2018-12-24T10:57:31.106Z,17.9
2018-12-24T10:58:21.071Z,17.9
2018-12-24T10:59:11.592Z,17.9
2018-12-24T11:00:00.814Z,17.9
2018-12-24T11:00:49.895Z,17.8
2018-12-24T11:01:41.330Z,17.8
2018-12-24T11:02:31.768Z,17.8
2018-12-24T11:03:20.608Z,17.8
2018-12-24T11:04:11.263Z,17.6
2018-12-24T11:05:01.598Z,17.6
2018-12-24T11:05:51.333Z,17.6
2018-12-24T11:06:41.203Z,17.5
2018-12-24T11:07:31.178Z,17.5
2018-12-24T11:08:20.923Z,17.4
2018-12-24T11:09:10.257Z,17.4
2018-12-24T11:10:01.935Z,17.3
2018-12-24T11:10:54.220Z,17.3
2018-12-24T11:11:41.442Z,17.3
2018-12-24T11:12:31.603Z,17.2
2018-12-24T11:13:21.623Z,17.1
2018-12-24T11:14:12.235Z,17.1
2018-12-24T11:18:21.712Z,17.1
2018-12-24T11:19:12.525Z,17.1
2018-12-24T11:20:03.179Z,17.2
2018-12-24T11:20:51.409Z,17.3
2018-12-24T11:21:40.837Z,17.4
2018-12-24T11:22:31.237Z,17.5
2018-12-24T11:23:22.292Z,17.6
2018-12-24T11:24:11.907Z,17.7
2018-12-24T11:25:03.004Z,17.8
2018-12-24T11:25:51.644Z,17.8
2018-12-24T11:26:42.256Z,17.8
2018-12-24T11:27:32.054Z,17.9
2018-12-24T11:28:22.664Z,18
2018-12-24T11:29:13.191Z,18
2018-12-24T11:30:03.746Z,18
2018-12-24T11:30:51.991Z,18
2018-12-24T11:31:43.101Z,18
2018-12-24T11:32:32.423Z,17.9
2018-12-24T11:33:23.881Z,17.9
2018-12-24T11:34:12.985Z,17.8
2018-12-24T11:35:03.496Z,17.8
2018-12-24T11:35:53.124Z,17.8
2018-12-24T11:36:43.219Z,17.7
2018-12-24T11:37:33.973Z,17.6
2018-12-24T11:38:23.795Z,17.6
2018-12-24T11:39:13.587Z,17.5
2018-12-24T11:40:03.293Z,17.4
2018-12-24T11:40:53.800Z,17.4
2018-12-24T11:41:43.765Z,17.3
2018-12-24T11:42:35.969Z,17.3
2018-12-24T11:43:23.433Z,17.2
2018-12-24T11:44:13.583Z,17.1
2018-12-24T11:45:03.442Z,17.1
2018-12-24T11:45:53.027Z,17.1
2018-12-24T11:46:44.620Z,17.1
2018-12-24T11:47:35.275Z,17.1
2018-12-24T11:48:24.051Z,17.1
2018-12-24T11:49:14.242Z,17.1
2018-12-24T11:50:04.070Z,17.2
2018-12-24T11:50:54.406Z,17.3
2018-12-24T11:51:44.437Z,17.3
2018-12-24T11:52:34.057Z,17.4
2018-12-24T11:53:25.412Z,17.5
2018-12-24T11:54:15.148Z,17.6
2018-12-24T11:55:05.483Z,17.7
2018-12-24T11:55:55.554Z,17.8
2018-12-24T11:56:44.817Z,17.8
2018-12-24T11:57:35.464Z,17.9
2018-12-24T11:58:26.157Z,18
2018-12-24T11:59:15.062Z,17.9
2018-12-24T12:00:05.269Z,18
2018-12-24T12:00:54.412Z,18
2018-12-24T12:01:45.314Z,18.1
2018-12-24T12:02:34.077Z,18.1
2018-12-24T12:03:25.561Z,18.1
2018-12-24T12:04:15.626Z,17.9
2018-12-24T12:05:05.555Z,17.9
2018-12-24T12:05:57.569Z,17.9
2018-12-24T12:06:45.504Z,17.8
2018-12-24T12:07:35.937Z,17.8
2018-12-24T12:08:25.949Z,17.8
2018-12-24T12:09:14.919Z,17.7
2018-12-24T12:10:05.249Z,17.6
2018-12-24T12:10:55.985Z,17.6
2018-12-24T12:11:45.744Z,17.5
2018-12-24T12:12:35.134Z,17.4
2018-12-24T12:13:25.268Z,17.4
2018-12-24T12:14:15.226Z,17.4
2018-12-24T12:15:05.864Z,17.3
2018-12-24T12:15:56.899Z,17.3
2018-12-24T12:16:44.726Z,17.2
2018-12-24T12:17:36.108Z,17.1
2018-12-24T12:18:25.246Z,17.1
2018-12-24T12:19:16.110Z,17.1
2018-12-24T12:20:06.151Z,17.2
2018-12-24T12:21:01.765Z,17.2
2018-12-24T12:21:46.555Z,17.3
2018-12-24T12:22:36.483Z,17.3